createdAt,value
2022-11-17T00:01:10.428Z,3.00
2022-11-17T00:06:10.151Z,1.90
2022-11-17T00:08:40.705Z,2.30
2022-11-17T00:11:11.665Z,5.40
2022-11-17T00:13:59.877Z,3.90
2022-11-17T00:16:30.465Z,3.40
2022-11-17T00:19:18.660Z,3.60
2022-11-17T00:21:49.340Z,2.90
2022-11-17T00:24:20.124Z,2.80
2022-11-17T00:27:02.631Z,3.60
2022-11-17T00:29:36.301Z,4.00
2022-11-17T00:32:33.040Z,3.20
2022-11-17T00:35:04.158Z,2.50
2022-11-17T00:37:38.167Z,1.80
2022-11-17T00:40:10.539Z,2.50
2022-11-17T00:42:41.119Z,1.70
2022-11-17T00:45:13.103Z,2.10
2022-11-17T00:47:45.167Z,1.80
2022-11-17T00:50:16.353Z,2.30
2022-11-17T00:52:47.025Z,1.40
2022-11-17T00:55:17.970Z,3.00
2022-11-17T00:57:48.698Z,2.40
2022-11-17T01:00:21.268Z,1.50
2022-11-17T01:02:52.338Z,1.70
2022-11-17T01:05:22.969Z,1.90
2022-11-17T01:07:55.381Z,1.80
2022-11-17T01:10:25.957Z,1.80
2022-11-17T01:12:56.566Z,1.80
2022-11-17T01:15:27.320Z,1.70
2022-11-17T01:17:58.056Z,1.40
2022-11-17T01:20:29.010Z,1.30
2022-11-17T01:22:59.635Z,1.40
2022-11-17T01:25:30.230Z,1.60
2022-11-17T01:28:00.842Z,1.20
2022-11-17T01:30:31.603Z,1.00
2022-11-17T01:33:02.362Z,1.80
2022-11-17T01:35:34.938Z,1.10
2022-11-17T01:38:05.484Z,1.00
2022-11-17T01:40:36.117Z,1.50
2022-11-17T01:43:11.739Z,1.00
2022-11-17T01:45:42.611Z,1.10
2022-11-17T01:48:15.775Z,1.00
2022-11-17T01:50:49.594Z,1.30
2022-11-17T01:53:22.577Z,0.90
2022-11-17T01:55:56.677Z,1.20
2022-11-17T01:58:30.291Z,0.90
2022-11-17T02:01:01.097Z,1.00
2022-11-17T02:03:35.334Z,1.00
2022-11-17T02:06:10.604Z,1.30
2022-11-17T02:08:44.109Z,1.40
2022-11-17T02:11:17.153Z,0.90
2022-11-17T02:13:49.101Z,2.10
2022-11-17T02:16:20.177Z,1.10
2022-11-17T02:18:51.438Z,0.90
2022-11-17T02:21:51.998Z,0.90
2022-11-17T02:24:52.087Z,0.50
2022-11-17T02:27:43.298Z,1.30
2022-11-17T02:30:17.424Z,1.30
2022-11-17T02:32:59.650Z,1.00
2022-11-17T02:35:39.868Z,0.70
2022-11-17T02:38:21.921Z,0.60
2022-11-17T02:40:59.251Z,1.30
2022-11-17T02:43:55.207Z,1.20
2022-11-17T02:46:29.805Z,0.90
2022-11-17T02:49:06.077Z,2.60
2022-11-17T02:51:39.159Z,0.90
2022-11-17T02:54:11.241Z,1.00
2022-11-17T02:56:45.100Z,1.20
2022-11-17T02:59:19.284Z,1.20
2022-11-17T03:02:21.278Z,2.30
2022-11-17T03:05:04.802Z,2.60
2022-11-17T03:07:47.266Z,1.40
2022-11-17T03:10:21.621Z,1.50
2022-11-17T03:13:02.499Z,1.10
2022-11-17T03:15:47.937Z,1.20
2022-11-17T03:18:25.389Z,1.40
2022-11-17T03:21:06.504Z,1.20
2022-11-17T03:23:45.622Z,1.00
2022-11-17T03:26:22.398Z,1.90
2022-11-17T03:28:53.540Z,3.70
2022-11-17T03:31:27.408Z,1.40
2022-11-17T03:33:59.306Z,1.50
2022-11-17T03:36:35.285Z,0.40
2022-11-17T03:39:11.035Z,1.30
2022-11-17T03:41:47.319Z,1.60
2022-11-17T03:44:20.560Z,1.00
2022-11-17T03:46:53.162Z,2.10
2022-11-17T03:49:32.903Z,1.20
2022-11-17T03:52:04.117Z,1.50
2022-11-17T03:54:35.946Z,1.50
2022-11-17T03:57:11.600Z,1.10
2022-11-17T03:59:48.178Z,1.60
2022-11-17T04:02:20.126Z,1.50
2022-11-17T04:05:09.128Z,1.30
2022-11-17T04:07:42.204Z,1.40
2022-11-17T04:10:15.529Z,1.70
2022-11-17T04:13:04.209Z,1.10
2022-11-17T04:15:52.587Z,1.20
2022-11-17T04:18:24.586Z,1.10
2022-11-17T04:20:57.268Z,1.50
2022-11-17T04:23:28.200Z,1.10
2022-11-17T04:26:17.123Z,0.80
2022-11-17T04:28:50.553Z,1.30
2022-11-17T04:31:22.804Z,1.00
2022-11-17T04:33:54.756Z,2.60
2022-11-17T04:36:27.188Z,2.20
2022-11-17T04:39:00.551Z,1.00
2022-11-17T04:41:49.362Z,0.90
2022-11-17T04:44:21.178Z,2.00
2022-11-17T04:46:52.531Z,1.90
2022-11-17T04:49:25.066Z,0.70
2022-11-17T04:51:56.295Z,1.50
2022-11-17T04:54:27.209Z,1.20
2022-11-17T04:56:58.058Z,1.00
2022-11-17T04:59:28.664Z,1.70
2022-11-17T05:02:05.295Z,2.10
2022-11-17T05:04:54.229Z,1.30
2022-11-17T05:07:25.327Z,1.10
2022-11-17T05:09:55.994Z,1.30
2022-11-17T05:12:44.264Z,4.70
2022-11-17T05:15:35.025Z,1.40
2022-11-17T05:18:05.630Z,1.80
2022-11-17T05:20:36.871Z,1.10
2022-11-17T05:23:25.051Z,0.70
2022-11-17T05:25:58.274Z,1.60
2022-11-17T05:28:32.116Z,2.70
2022-11-17T05:31:02.825Z,1.60
2022-11-17T05:33:37.606Z,0.60
2022-11-17T05:36:09.989Z,1.60
2022-11-17T05:38:40.794Z,1.70
2022-11-17T05:41:11.761Z,2.30
2022-11-17T05:43:42.617Z,2.50
2022-11-17T05:46:13.801Z,2.70
2022-11-17T05:48:44.834Z,1.50
2022-11-17T05:51:15.623Z,1.00
2022-11-17T05:53:46.217Z,1.20
2022-11-17T05:56:36.728Z,1.50
2022-11-17T05:59:22.156Z,1.40
2022-11-17T06:02:01.562Z,1.10
2022-11-17T06:04:33.625Z,1.10
2022-11-17T06:07:04.800Z,0.80
2022-11-17T06:09:38.145Z,0.60
2022-11-17T06:12:11.963Z,1.00
2022-11-17T06:14:42.596Z,1.40
2022-11-17T06:17:22.703Z,1.50
2022-11-17T06:19:58.668Z,2.50
2022-11-17T06:22:30.630Z,2.20
2022-11-17T06:25:03.081Z,0.90
2022-11-17T06:27:35.166Z,1.70
2022-11-17T06:30:08.018Z,1.40
2022-11-17T06:32:43.558Z,1.00
2022-11-17T06:35:16.691Z,1.60
2022-11-17T06:37:47.390Z,2.10
2022-11-17T06:40:18.565Z,1.80
2022-11-17T06:43:08.378Z,1.00
2022-11-17T06:45:40.776Z,1.20
2022-11-17T06:48:13.350Z,0.70
2022-11-17T06:50:44.582Z,1.80
2022-11-17T06:53:15.550Z,1.60
2022-11-17T06:55:50.919Z,0.50
2022-11-17T06:58:21.516Z,2.20
2022-11-17T07:00:52.170Z,1.20
2022-11-17T07:03:22.908Z,1.30
2022-11-17T07:05:53.496Z,1.60
2022-11-17T07:08:24.017Z,1.50
2022-11-17T07:10:55.757Z,1.20
2022-11-17T07:13:27.310Z,0.50
2022-11-17T07:16:02.694Z,0.90
2022-11-17T07:18:34.198Z,1.40
2022-11-17T07:21:07.033Z,1.20
2022-11-17T07:23:38.280Z,1.10
2022-11-17T07:26:09.382Z,1.30
2022-11-17T07:28:40.144Z,1.10
2022-11-17T07:31:11.522Z,2.50
2022-11-17T07:33:42.092Z,1.20
2022-11-17T07:36:15.214Z,1.40
2022-11-17T07:38:46.198Z,1.40
2022-11-17T07:41:17.160Z,1.10
2022-11-17T07:43:47.865Z,1.20
2022-11-17T07:46:18.619Z,1.10
2022-11-17T07:48:49.252Z,1.00
2022-11-17T07:51:20.018Z,1.60
2022-11-17T07:53:50.915Z,1.30
2022-11-17T07:56:21.578Z,1.30
2022-11-17T07:58:52.180Z,1.30
2022-11-17T08:01:22.914Z,1.60
2022-11-17T08:03:54.028Z,1.40
2022-11-17T08:06:24.990Z,1.40
2022-11-17T08:08:55.868Z,2.80
2022-11-17T08:11:26.606Z,0.50
2022-11-17T08:13:57.240Z,1.20
2022-11-17T08:16:30.939Z,1.80
2022-11-17T08:19:01.694Z,1.50
2022-11-17T08:21:32.340Z,1.30
2022-11-17T08:24:03.367Z,1.60
2022-11-17T08:26:34.072Z,1.80
2022-11-17T08:29:04.652Z,3.00
2022-11-17T08:31:35.496Z,1.50
2022-11-17T08:34:06.474Z,0.80
2022-11-17T08:36:37.056Z,3.50
2022-11-17T08:39:07.886Z,1.30
2022-11-17T08:41:38.685Z,2.40
2022-11-17T08:44:09.709Z,1.50
2022-11-17T08:46:40.395Z,2.00
2022-11-17T08:49:10.934Z,2.40
2022-11-17T08:51:41.586Z,2.60
2022-11-17T08:54:14.327Z,2.00
2022-11-17T08:56:46.414Z,2.00
2022-11-17T08:59:17.288Z,1.60
2022-11-17T09:01:47.946Z,1.40
2022-11-17T09:04:19.424Z,1.80
2022-11-17T09:06:50.120Z,4.90
2022-11-17T09:09:21.211Z,1.80
2022-11-17T09:11:52.009Z,2.00
2022-11-17T09:14:22.681Z,2.50
2022-11-17T09:16:53.279Z,2.60
2022-11-17T09:19:24.177Z,2.10
2022-11-17T09:21:54.809Z,2.70
2022-11-17T09:24:26.689Z,3.00
2022-11-17T09:26:58.401Z,2.50
2022-11-17T09:29:29.082Z,2.70
2022-11-17T09:31:59.870Z,2.70
2022-11-17T09:34:30.477Z,3.10
2022-11-17T09:37:01.274Z,3.90
2022-11-17T09:39:31.930Z,2.60
2022-11-17T09:42:02.812Z,2.00
2022-11-17T09:44:40.885Z,2.00
2022-11-17T09:47:22.629Z,1.80
2022-11-17T09:50:00.291Z,2.80
2022-11-17T09:52:37.959Z,3.70
2022-11-17T09:55:23.665Z,2.90
2022-11-17T09:58:02.164Z,3.30
2022-11-17T10:00:36.279Z,2.40
2022-11-17T10:03:17.259Z,3.20
2022-11-17T10:05:49.081Z,1.40
2022-11-17T10:08:23.096Z,4.50
2022-11-17T10:10:54.487Z,1.40
2022-11-17T10:13:29.894Z,2.40
2022-11-17T10:16:03.402Z,7.80
2022-11-17T10:18:38.112Z,3.90
2022-11-17T10:21:09.984Z,2.60
2022-11-17T10:23:54.515Z,3.40
2022-11-17T10:26:25.262Z,2.70
2022-11-17T10:29:12.343Z,3.60
2022-11-17T10:31:47.539Z,2.50
2022-11-17T10:34:40.274Z,2.60
2022-11-17T10:37:28.447Z,1.80
2022-11-17T10:40:25.000Z,4.10
2022-11-17T10:43:25.299Z,2.60
2022-11-17T10:45:58.266Z,2.60
2022-11-17T10:48:32.072Z,2.40
2022-11-17T10:51:04.433Z,2.90
2022-11-17T10:53:45.223Z,2.90
2022-11-17T10:56:19.957Z,4.50
2022-11-17T10:59:01.858Z,4.10
2022-11-17T11:01:36.058Z,3.20
2022-11-17T11:04:26.521Z,3.30
2022-11-17T11:07:09.464Z,3.90
2022-11-17T11:09:45.629Z,1.70
2022-11-17T11:12:21.271Z,3.80
2022-11-17T11:14:55.917Z,3.60
2022-11-17T11:17:30.843Z,7.90
2022-11-17T11:20:01.868Z,7.80
2022-11-17T11:22:42.278Z,2.90
2022-11-17T11:25:31.990Z,4.00
2022-11-17T11:28:18.519Z,3.00
2022-11-17T11:31:06.298Z,3.60
2022-11-17T11:33:42.619Z,4.30
2022-11-17T11:36:25.403Z,4.00
2022-11-17T11:39:01.954Z,4.50
2022-11-17T11:41:45.498Z,5.00
2022-11-17T11:44:42.426Z,2.20
2022-11-17T11:47:29.186Z,3.00
2022-11-17T11:50:04.434Z,2.90
2022-11-17T11:52:39.155Z,3.70
2022-11-17T11:55:20.062Z,2.40
2022-11-17T11:57:56.772Z,5.90
2022-11-17T12:00:28.122Z,2.60
2022-11-17T12:03:06.624Z,2.30
2022-11-17T12:05:47.009Z,2.20
2022-11-17T12:08:26.344Z,2.70
2022-11-17T12:11:22.486Z,1.80
2022-11-17T12:13:54.595Z,0.80
2022-11-17T12:16:32.948Z,1.80
2022-11-17T12:19:03.922Z,2.00
2022-11-17T12:21:34.877Z,3.70
2022-11-17T12:24:15.186Z,2.50
2022-11-17T12:26:46.079Z,3.80
2022-11-17T12:29:34.225Z,4.80
2022-11-17T12:32:05.943Z,3.00
2022-11-17T12:34:37.407Z,4.60
2022-11-17T12:37:30.626Z,2.50
2022-11-17T12:40:30.588Z,3.80
2022-11-17T12:43:22.615Z,2.10
2022-11-17T12:46:14.813Z,3.00
2022-11-17T12:48:54.515Z,1.40
2022-11-17T12:51:32.759Z,3.80
2022-11-17T12:54:19.493Z,3.10
2022-11-17T12:57:07.548Z,3.40
2022-11-17T13:00:07.623Z,2.70
2022-11-17T13:03:00.282Z,3.70
2022-11-17T13:05:31.887Z,3.20
2022-11-17T13:08:20.368Z,3.40
2022-11-17T13:10:51.295Z,3.20
2022-11-17T13:13:23.571Z,3.40
2022-11-17T13:15:56.906Z,3.20
2022-11-17T13:18:32.870Z,2.70
2022-11-17T13:21:03.832Z,4.50
2022-11-17T13:23:35.680Z,3.30
2022-11-17T13:26:20.748Z,2.90
2022-11-17T13:29:03.050Z,2.90
2022-11-17T13:31:34.075Z,3.60
2022-11-17T13:34:09.008Z,3.70
2022-11-17T13:36:52.947Z,2.50
2022-11-17T13:39:27.279Z,3.10
2022-11-17T13:41:59.171Z,4.80
2022-11-17T13:44:30.395Z,3.50
2022-11-17T13:47:21.171Z,4.60
2022-11-17T13:49:52.012Z,3.40
2022-11-17T13:52:40.566Z,3.40
2022-11-17T13:55:20.259Z,3.10
2022-11-17T13:57:59.709Z,2.90
2022-11-17T14:00:32.073Z,4.10
2022-11-17T14:03:05.298Z,4.00
2022-11-17T14:05:36.626Z,2.40
2022-11-17T14:08:32.851Z,3.80
2022-11-17T14:11:22.294Z,4.70
2022-11-17T14:13:58.579Z,4.90
2022-11-17T14:16:35.018Z,2.50
2022-11-17T14:19:25.058Z,5.70
2022-11-17T14:22:04.394Z,4.60
2022-11-17T14:24:35.561Z,3.90
2022-11-17T14:27:13.573Z,2.10
2022-11-17T14:29:44.377Z,3.80
2022-11-17T14:32:15.311Z,5.10
2022-11-17T14:34:45.906Z,3.70
2022-11-17T14:37:17.045Z,2.70
2022-11-17T14:39:47.690Z,3.60
2022-11-17T14:42:18.471Z,3.70
2022-11-17T14:44:49.169Z,3.40
2022-11-17T14:47:20.241Z,3.30
2022-11-17T14:49:53.957Z,2.90
2022-11-17T14:52:24.655Z,2.60
2022-11-17T14:54:55.376Z,2.80
2022-11-17T14:57:26.305Z,2.80
2022-11-17T14:59:56.959Z,2.90
2022-11-17T15:02:27.683Z,2.80
2022-11-17T15:05:00.133Z,3.10
2022-11-17T15:07:31.636Z,2.90
2022-11-17T15:10:02.743Z,3.60
2022-11-17T15:12:33.489Z,2.40
2022-11-17T15:15:05.010Z,2.40
2022-11-17T15:17:35.718Z,3.00
2022-11-17T15:20:09.698Z,2.10
2022-11-17T15:22:40.291Z,2.30
2022-11-17T15:25:12.176Z,2.10
2022-11-17T15:27:42.857Z,4.10
2022-11-17T15:30:15.397Z,4.10
2022-11-17T15:32:46.102Z,3.30
2022-11-17T15:35:17.006Z,3.00
2022-11-17T15:37:47.660Z,2.40
2022-11-17T15:40:19.734Z,3.90
2022-11-17T15:42:53.477Z,3.30
2022-11-17T15:45:24.138Z,2.60
2022-11-17T15:47:54.935Z,3.60
2022-11-17T15:50:25.573Z,5.20
2022-11-17T15:53:04.121Z,2.70
2022-11-17T15:55:36.160Z,3.40
2022-11-17T15:58:06.833Z,4.00
2022-11-17T16:00:40.289Z,3.90
2022-11-17T16:03:11.095Z,2.90
2022-11-17T16:05:41.701Z,3.50
2022-11-17T16:08:12.477Z,4.00
2022-11-17T16:10:43.078Z,2.60
2022-11-17T16:13:13.710Z,3.00
2022-11-17T16:15:44.403Z,7.20
2022-11-17T16:18:15.110Z,3.70
2022-11-17T16:20:46.025Z,4.40
2022-11-17T16:23:17.423Z,2.40
2022-11-17T16:25:49.526Z,6.50
2022-11-17T16:28:20.749Z,5.40
2022-11-17T16:30:51.726Z,2.80
2022-11-17T16:33:22.640Z,5.80
2022-11-17T16:35:53.399Z,4.90
2022-11-17T16:38:24.201Z,5.90
2022-11-17T16:40:54.935Z,8.00
2022-11-17T16:43:26.131Z,6.10
2022-11-17T16:45:56.833Z,5.60
2022-11-17T16:48:27.555Z,6.10
2022-11-17T16:50:58.565Z,6.60
2022-11-17T16:53:29.543Z,3.00
2022-11-17T16:56:05.852Z,6.80
2022-11-17T16:58:37.467Z,6.10
2022-11-17T17:01:16.504Z,5.50
2022-11-17T17:03:47.648Z,4.70
2022-11-17T17:06:19.549Z,4.30
2022-11-17T17:08:53.407Z,4.50
2022-11-17T17:11:24.697Z,4.40
2022-11-17T17:13:56.418Z,3.70
2022-11-17T17:16:27.175Z,4.50
2022-11-17T17:19:00.685Z,6.00
2022-11-17T17:21:32.524Z,5.10
2022-11-17T17:24:03.600Z,7.10
2022-11-17T17:26:36.349Z,5.30
2022-11-17T17:29:08.103Z,5.90
2022-11-17T17:31:40.634Z,4.00
2022-11-17T17:34:12.629Z,5.20
2022-11-17T17:36:43.913Z,5.70
2022-11-17T17:39:17.814Z,4.80
2022-11-17T17:41:48.977Z,7.90
2022-11-17T17:44:20.736Z,4.20
2022-11-17T17:46:51.529Z,7.50
2022-11-17T17:49:22.399Z,6.30
2022-11-17T17:51:53.111Z,7.50
2022-11-17T17:54:25.337Z,4.60
2022-11-17T17:56:57.734Z,5.10
2022-11-17T17:59:28.490Z,5.90
2022-11-17T18:01:59.324Z,4.20
2022-11-17T18:04:30.145Z,5.60
2022-11-17T18:07:01.654Z,6.90
2022-11-17T18:09:33.149Z,5.40
2022-11-17T18:12:04.089Z,1.50
2022-11-17T18:14:34.905Z,6.30
2022-11-17T18:17:05.557Z,6.10
2022-11-17T18:19:36.454Z,5.70
2022-11-17T18:22:07.118Z,10.80
2022-11-17T18:24:37.797Z,6.80
2022-11-17T18:27:09.028Z,6.20
2022-11-17T18:29:39.750Z,5.70
2022-11-17T18:32:10.491Z,7.00
2022-11-17T18:34:42.019Z,6.60
2022-11-17T18:37:12.781Z,6.10
2022-11-17T18:39:43.479Z,6.70
2022-11-17T18:42:14.132Z,6.10
2022-11-17T18:44:44.908Z,5.60
2022-11-17T18:47:18.715Z,5.20
2022-11-17T18:49:49.451Z,5.70
2022-11-17T18:52:20.082Z,4.50
2022-11-17T18:54:50.795Z,5.90
2022-11-17T18:57:21.403Z,5.10
2022-11-17T18:59:52.088Z,6.70
2022-11-17T19:02:23.080Z,5.50
2022-11-17T19:04:53.770Z,2.70
2022-11-17T19:07:24.555Z,3.80
2022-11-17T19:09:55.308Z,6.10
2022-11-17T19:12:26.138Z,4.60
2022-11-17T19:14:57.318Z,4.60
2022-11-17T19:17:28.310Z,6.00
2022-11-17T19:19:59.005Z,4.70
2022-11-17T19:22:29.833Z,6.40
2022-11-17T19:25:01.207Z,5.20
2022-11-17T19:27:32.003Z,5.60
2022-11-17T19:30:02.689Z,5.70
2022-11-17T19:32:33.324Z,5.60
2022-11-17T19:35:13.842Z,4.10
2022-11-17T19:37:47.932Z,4.80
2022-11-17T19:40:19.611Z,5.50
2022-11-17T19:42:51.172Z,5.00
2022-11-17T19:45:21.867Z,4.00
2022-11-17T19:47:52.485Z,6.20
2022-11-17T19:50:23.142Z,7.30
2022-11-17T19:52:54.098Z,4.60
2022-11-17T19:55:24.742Z,5.70
2022-11-17T19:57:55.421Z,6.30
2022-11-17T20:00:26.211Z,6.00
2022-11-17T20:02:56.933Z,4.10
2022-11-17T20:05:27.630Z,6.60
2022-11-17T20:07:58.277Z,5.60
2022-11-17T20:10:29.062Z,3.60
2022-11-17T20:13:00.245Z,6.60
2022-11-17T20:15:34.920Z,5.90
2022-11-17T20:18:06.113Z,5.60
2022-11-17T20:20:37.693Z,6.20
2022-11-17T20:23:08.768Z,5.60
2022-11-17T20:25:41.334Z,6.70
2022-11-17T20:28:12.011Z,6.70
2022-11-17T20:30:43.239Z,7.00
2022-11-17T20:33:14.080Z,5.60
2022-11-17T20:35:44.773Z,6.00
2022-11-17T20:38:15.894Z,6.40
2022-11-17T20:40:46.662Z,6.30
2022-11-17T20:43:17.502Z,6.80
2022-11-17T20:45:51.132Z,7.20
2022-11-17T20:48:22.150Z,8.20
2022-11-17T20:51:03.597Z,7.30
2022-11-17T20:53:34.969Z,8.00
2022-11-17T20:56:08.653Z,4.30
2022-11-17T20:58:40.331Z,6.30
2022-11-17T21:01:12.678Z,7.60
2022-11-17T21:03:43.617Z,8.10
2022-11-17T21:06:15.415Z,6.20
2022-11-17T21:08:47.181Z,10.50
2022-11-17T21:11:33.476Z,8.10
2022-11-17T21:14:05.056Z,6.90
2022-11-17T21:16:37.810Z,7.00
2022-11-17T21:19:09.095Z,8.80
2022-11-17T21:21:40.227Z,7.00
2022-11-17T21:24:12.370Z,9.30
2022-11-17T21:26:43.033Z,8.70
2022-11-17T21:29:15.714Z,9.00
2022-11-17T21:31:46.775Z,4.00
2022-11-17T21:34:19.004Z,9.10
2022-11-17T21:36:50.016Z,9.90
2022-11-17T21:39:21.021Z,8.40
2022-11-17T21:41:51.859Z,9.60
2022-11-17T21:44:22.927Z,8.40
2022-11-17T21:46:53.751Z,7.90
2022-11-17T21:49:24.397Z,7.40
2022-11-17T21:51:55.102Z,9.20
2022-11-17T21:54:25.811Z,9.70
2022-11-17T21:56:56.451Z,6.10
2022-11-17T21:59:27.323Z,4.50
2022-11-17T22:01:58.410Z,9.90
2022-11-17T22:04:29.112Z,9.10
2022-11-17T22:06:59.831Z,9.50
2022-11-17T22:09:30.522Z,10.10
2022-11-17T22:12:01.252Z,11.10
2022-11-17T22:14:32.108Z,10.60
2022-11-17T22:17:02.955Z,10.50
2022-11-17T22:19:33.733Z,9.50
2022-11-17T22:22:04.422Z,10.10
2022-11-17T22:24:35.119Z,11.00
2022-11-17T22:27:05.872Z,7.90
2022-11-17T22:29:36.667Z,11.30
2022-11-17T22:32:07.703Z,13.40
2022-11-17T22:34:38.491Z,10.30
2022-11-17T22:37:09.361Z,7.30
2022-11-17T22:39:40.010Z,9.80
2022-11-17T22:42:10.866Z,11.30
2022-11-17T22:44:41.582Z,9.70
2022-11-17T22:47:12.286Z,7.50
2022-11-17T22:49:42.901Z,10.20
2022-11-17T22:52:15.201Z,9.20
2022-11-17T22:54:45.903Z,10.90
2022-11-17T22:57:16.528Z,10.30
2022-11-17T22:59:47.162Z,9.60
2022-11-17T23:02:17.936Z,11.00
2022-11-17T23:04:48.602Z,9.80
2022-11-17T23:07:19.412Z,10.70
2022-11-17T23:09:50.215Z,10.20
2022-11-17T23:12:20.959Z,9.70
2022-11-17T23:14:51.650Z,10.90
2022-11-17T23:17:22.320Z,11.50
2022-11-17T23:19:52.999Z,12.10
2022-11-17T23:22:23.720Z,10.00
2022-11-17T23:24:54.478Z,10.90
2022-11-17T23:27:25.128Z,10.60
2022-11-17T23:29:56.001Z,6.60
2022-11-17T23:32:26.631Z,12.10
2022-11-17T23:34:57.546Z,10.70
2022-11-17T23:37:28.955Z,8.70
2022-11-17T23:39:59.721Z,10.10
2022-11-17T23:42:32.609Z,9.70
2022-11-17T23:45:03.654Z,9.80
2022-11-17T23:47:34.454Z,10.40
2022-11-17T23:50:05.261Z,12.20
2022-11-17T23:52:36.064Z,12.60
2022-11-17T23:55:08.534Z,12.20
2022-11-17T23:57:39.331Z,12.70
